Gretna, LA (70056)

5:42 AM CDT on April 23, 2017 (GMT -0500)
Terrytown | | Change Station

Elev 7 ft 29.90 °N, 90.03 °W | Updated 17 seconds ago

Mostly Cloudy
Mostly Cloudy
66.2 °F
Feels Like 66.2 °F
N
4.3
Wind Variable Wind from NW
Gusts 7.4 mph

Today
High -- | Low -- °F
--% Chance of Precip.
Yesterday
High -- | Low -- °F
Precip. -- in
Pressure 29.88 in
Visibility 10.0 miles
Clouds Scattered Clouds 1400 ft
Scattered Clouds 6500 ft
Dew Point 65 °F
Humidity 95%
Rainfall 0.13 in
Snow Depth Not available.
6:24 AM 7:32 PM
Waning Crescent, 13% visible
SPECI KNEW 231008Z AUTO 34015KT 10SM SCT014 SCT065 19/16 A2988 RMK AO2 T01940161
Pressure 29.88 in
Visibility 10.0 miles
Clouds Scattered Clouds 1400 ft
Scattered Clouds 6500 ft
Dew Point 65 °F
Humidity 95%
Rainfall 0.13 in
Snow Depth Not available.
6:24 AM 7:32 PM
Waning Crescent, 13% visible
SPECI KNEW 231008Z AUTO 34015KT 10SM SCT014 SCT065 19/16 A2988 RMK AO2 T01940161

Get Severe Weather Alerts

Thanks for signing up!

Be on the lookout for a verification email in your inbox.

You'll start receiving the daily forecast at 8 AM.

×

10-Day Weather Forecast

Almanac

Astronomy

Apr. 23, 2017 Rise Set
Actual Time
Civil Twilight
Nautical Twilight
Astronomical Twilight
Moon
Length of Visible Light
Length of Day
Tomorrow will be .
, % of the Moon is Illuminated

Today's Extremes

State Highs State Lows

Community

WunderPhotos

WunderBlog® & News

Nearby

Air Quality

  Air Quality AQ Index Pollutant
Not available.

Snow Depth

Station Depth Elevation

Earthquake Activity

City Distance Mag. Time & Date
Minimum magnitude displayed is 2.5.

Coastal Water Temperatures

Place Temperature

Stations

Nearby Weather Stations

Station Location Temp. Windchill Dew Point Humidity Wind Precip. Elev Updated Type
                   

Watches & Warnings

There are currently no watches in effect.